Phillipsport, New York
Current Conditions -  °F | °C
As of 2:54 PM on Tuesday 25 Nov 2014 (Local Time) from KMGJ Reporting Station
Clear Clear  
Wind Chill: 53°   Ceiling: Unl
Heat Index: 53°   Visibility: 10mi
Dew Point: 26°   Wind: 10mph
Humidity: 35%   Direction: 270°W
Pressure: 29.95"   Gusts: NA
Location:  41.65°N, 74.44°W
Report Text: KMGJ 251954Z AUTO 27009KT 10SM CLR 12/M03 A2995 RMK AO2 SLP143 T01171033 TSNO
Loading
Personal Weather Stations






























Interactive Weather Map New forecast layout! Learn more

10-Day Weather Forecast

Advertisements
Track Severe Weather on mobile